Tigran Martirosyan — UBGF7 — position and weather

sailwx.info

Track history (hours):
 
Tides and Currents Weather Stations Pressure Air Temp Water Temp Dewpoint Dewpoint Depression Visibility Wind Speed Wind Dir Waves Ship Positions

Tigran Martirosyan

Last reported at 2018-Jul-21 06:45 UTC. Time now 2018-Jul-21 09:19 UTC.
Position N 45°05' E 036°34'.

Length 99 m; draft 6.3 m.

Type: Tanker. MMSI: 273332610.

Date/timePositionNaut miles runAvg speedWind from/ knotsBaromVisibWave heightAir tempDewpointWater temp
2018-Jul-21 06:45N 45°05' E 036°34'  
2018-Jul-17 18:04N 44°39' E 037°28'1 8.6
2018-Jul-17 18:00N 44°38' E 037°29'4 8.3
2018-Jul-17 17:30N 44°36' E 037°33'4 8.1
2018-Jul-17 17:00N 44°34' E 037°38'3 5.9
2018-Jul-17 16:30N 44°36' E 037°42'4 7.2
2018-Jul-17 16:00N 44°38' E 037°46'3 6.9
2018-Jul-17 15:30N 44°40' E 037°50'1 3.0
2018-Jul-17 15:00N 44°41' E 037°49'0 0.0
2018-Jul-17 14:27N 44°41' E 037°49'0 0.1
2018-Jul-17 14:00N 44°41' E 037°49'2 4.7
2018-Jul-17 13:30N 44°43' E 037°48'1 1.9
2018-Jul-17 13:00N 44°44' E 037°47'0 0.0
2018-Jul-17 12:30N 44°44' E 037°47'0 0.0
2018-Jul-17 12:00N 44°44' E 037°47'0 0.0
2018-Jul-17 11:30N 44°44' E 037°47'0 0.0
2018-Jul-17 11:00N 44°44' E 037°47'0 0.0
2018-Jul-17 10:30N 44°44' E 037°47'0 0.0
2018-Jul-17 10:00N 44°44' E 037°47'0 0.0
2018-Jul-17 09:30N 44°44' E 037°47'0 0.0
2018-Jul-17 09:00N 44°44' E 037°47'0 0.0
2018-Jul-17 08:30N 44°44' E 037°47'0 0.0
2018-Jul-17 08:00N 44°44' E 037°47'0 0.8
2018-Jul-17 07:30N 44°44' E 037°47'3 5.5
2018-Jul-17 07:01N 44°41' E 037°49'0 0.4
2018-Jul-17 06:30N 44°41' E 037°49'0 0.0
2018-Jul-17 06:00N 44°41' E 037°49'0 0.0
2018-Jul-17 05:30N 44°41' E 037°49'0 0.0
2018-Jul-17 05:00N 44°41' E 037°49'0 0.0
2018-Jul-17 04:30N 44°41' E 037°49'0 0.0
2018-Jul-17 04:00N 44°41' E 037°49'0 0.0
2018-Jul-17 03:30N 44°41' E 037°49'0 0.0
2018-Jul-17 03:00N 44°41' E 037°49'0 0.0
2018-Jul-17 02:30N 44°41' E 037°49'0 0.1
2018-Jul-17 02:00N 44°41' E 037°49'0 0.1
2018-Jul-17 01:30N 44°41' E 037°49'0 0.1
2018-Jul-17 01:00N 44°41' E 037°49'0 0.2
2018-Jul-17 00:27N 44°41' E 037°49'0 0.0
2018-Jul-16 23:30N 44°41' E 037°49'1 2.4
2018-Jul-16 23:00N 44°40' E 037°50'4 7.6
2018-Jul-16 22:30N 44°37' E 037°52'2 4.2
2018-Jul-16 22:00N 44°35' E 037°54'0 0.0
2018-Jul-16 21:30N 44°35' E 037°54'0 0.0
2018-Jul-16 20:57N 44°35' E 037°54'0 0.1
2018-Jul-16 20:30N 44°35' E 037°54'0 0.3
2018-Jul-16 20:00N 44°35' E 037°54'0 0.0
2018-Jul-16 19:30N 44°35' E 037°54'0 0.0
2018-Jul-16 19:00N 44°35' E 037°54'0 0.1
2018-Jul-16 18:30N 44°35' E 037°54'0 0.1
2018-Jul-16 18:00N 44°35' E 037°54'0 0.0
2018-Jul-16 17:30N 44°35' E 037°54'0 0.0
2018-Jul-16 17:00N 44°35' E 037°54'0 0.0
2018-Jul-16 16:30N 44°35' E 037°54'0 0.0
2018-Jul-16 16:00N 44°35' E 037°54'0 0.0
2018-Jul-16 15:30N 44°35' E 037°54'0 0.0
2018-Jul-16 15:00N 44°35' E 037°54'0 0.0
2018-Jul-16 14:30N 44°35' E 037°54'0 0.0
2018-Jul-16 14:00N 44°35' E 037°54'0 0.0
2018-Jul-16 13:30N 44°35' E 037°54'0 0.0
2018-Jul-16 13:00N 44°35' E 037°54'0 0.1
2018-Jul-16 12:30N 44°35' E 037°54'0 0.0
2018-Jul-16 12:00N 44°35' E 037°54'0 0.1
2018-Jul-16 11:30N 44°35' E 037°54'1 2.6
2018-Jul-16 11:00N 44°36' E 037°54'0 0.1
2018-Jul-16 10:31N 44°36' E 037°54'0 0.0
2018-Jul-16 10:01N 44°36' E 037°54'0 0.0
2018-Jul-16 09:30N 44°36' E 037°54'2 3.6
2018-Jul-16 09:00N 44°38' E 037°53'3 6.8
2018-Jul-16 08:30N 44°40' E 037°50'1 1.9
2018-Jul-16 08:00N 44°41' E 037°49'0 0.0
2018-Jul-16 07:30N 44°41' E 037°49'0 0.0
2018-Jul-16 07:00N 44°41' E 037°49'0 0.0
2018-Jul-16 06:30N 44°41' E 037°49'0 0.0
2018-Jul-16 06:00N 44°41' E 037°49'0 0.1
2018-Jul-16 05:30N 44°41' E 037°49'0 0.1
2018-Jul-16 05:00N 44°41' E 037°49'0 0.0
2018-Jul-16 04:30N 44°41' E 037°49'0 0.0
2018-Jul-16 04:00N 44°41' E 037°49'0 0.0
2018-Jul-16 03:30N 44°41' E 037°49'0 0.0
2018-Jul-16 03:00N 44°41' E 037°49'0 0.0
2018-Jul-16 02:30N 44°41' E 037°49'0 0.0
2018-Jul-16 02:00N 44°41' E 037°49'0 0.0
2018-Jul-16 01:30N 44°41' E 037°49'0 0.0
2018-Jul-16 01:00N 44°41' E 037°49'0 0.0
2018-Jul-16 00:30N 44°41' E 037°49'0 0.0
2018-Jul-15 23:57N 44°41' E 037°49'0 0.0
2018-Jul-15 23:30N 44°41' E 037°49'0 0.0
2018-Jul-15 23:00N 44°41' E 037°49'0 0.0
2018-Jul-15 22:30N 44°41' E 037°49'0 0.0
2018-Jul-15 22:00N 44°41' E 037°49'0 0.0
2018-Jul-15 21:30N 44°41' E 037°49'0 0.0
2018-Jul-15 21:00N 44°41' E 037°49'0 0.0
2018-Jul-15 20:30N 44°41' E 037°49'0 0.0
2018-Jul-15 20:00N 44°41' E 037°49'0 0.0
2018-Jul-15 19:30N 44°41' E 037°49'0 0.1
2018-Jul-15 19:00N 44°41' E 037°49'0 0.1
2018-Jul-15 18:30N 44°41' E 037°49'0 0.1
2018-Jul-15 18:00N 44°41' E 037°49'0 0.0
2018-Jul-15 17:30N 44°41' E 037°49'0 0.0
2018-Jul-15 17:00N 44°41' E 037°49'0 0.1
2018-Jul-15 16:30N 44°41' E 037°49'0 0.1
2018-Jul-15 16:00N 44°41' E 037°49'0 0.0
2018-Jul-15 15:30N 44°41' E 037°49'0 0.0
2018-Jul-15 15:00N 44°41' E 037°49'0 0.0
2018-Jul-15 14:24N 44°41' E 037°49'0 0.0
2018-Jul-15 14:00N 44°41' E 037°49'0 0.0
2018-Jul-15 13:30N 44°41' E 037°49'0 0.0
2018-Jul-15 13:00N 44°41' E 037°49'0 0.0
2018-Jul-15 12:30N 44°41' E 037°49'0 0.1
2018-Jul-15 12:00N 44°41' E 037°49'0 0.0
2018-Jul-15 11:30N 44°41' E 037°49'0 0.0
2018-Jul-15 11:00N 44°41' E 037°49'0 0.0
2018-Jul-15 10:30N 44°41' E 037°49'0 0.0
2018-Jul-15 10:00N 44°41' E 037°49'0 0.0
2018-Jul-15 09:30N 44°41' E 037°49'0 0.0
2018-Jul-15 09:00N 44°41' E 037°49'0 0.0
2018-Jul-15 08:30N 44°41' E 037°49'0 0.0
2018-Jul-15 08:00N 44°41' E 037°49'0 0.0
2018-Jul-15 07:30N 44°41' E 037°49'0 0.0
2018-Jul-15 07:01N 44°41' E 037°49'0 0.1
2018-Jul-15 06:31N 44°41' E 037°49'0 0.2
2018-Jul-15 06:00N 44°41' E 037°49'0 0.1
2018-Jul-15 05:31N 44°41' E 037°49'0 0.1
2018-Jul-15 05:00N 44°41' E 037°49'0 0.1
2018-Jul-15 04:31N 44°41' E 037°49'0 0.0
2018-Jul-15 04:00N 44°41' E 037°49'0 0.0
2018-Jul-15 03:31N 44°41' E 037°49'0 0.0
2018-Jul-15 03:01N 44°41' E 037°49'0 0.0
2018-Jul-15 02:31N 44°41' E 037°49'0 0.0
2018-Jul-15 02:01N 44°41' E 037°49'0 0.1
2018-Jul-15 01:30N 44°41' E 037°49'0 0.0
2018-Jul-15 01:01N 44°41' E 037°49'0 0.0
2018-Jul-15 00:30N 44°41' E 037°49'0 0.0
2018-Jul-15 00:00N 44°41' E 037°49'0 0.0
2018-Jul-14 23:31N 44°41' E 037°49'0 0.0
2018-Jul-14 23:00N 44°41' E 037°49'1 1.6
2018-Jul-14 22:30N 44°40' E 037°50'3 6.4
2018-Jul-14 22:00N 44°38' E 037°47'4 7.5
2018-Jul-14 21:30N 44°36' E 037°42'4 7.5
2018-Jul-14 21:00N 44°36' E 037°37'58 2.0
2018-Jul-13 15:33N 45°11' E 036°32'0 0.0
2018-Jul-13 15:27N 45°11' E 036°32'0 0.0
2018-Jul-13 14:57N 45°11' E 036°32'0 0.0
2018-Jul-13 14:21N 45°11' E 036°32'0 0.0
2018-Jul-13 13:30N 45°11' E 036°32'0 0.0
2018-Jul-13 13:00N 45°11' E 036°32'0 0.0
2018-Jul-13 12:24N 45°11' E 036°32'0 0.0
2018-Jul-13 12:00N 45°11' E 036°32'0 0.0
2018-Jul-13 11:27N 45°11' E 036°32'0 0.0
2018-Jul-13 09:45N 45°11' E 036°32'0 0.1
2018-Jul-13 09:30N 45°11' E 036°32'0 0.7
2018-Jul-13 09:00N 45°10' E 036°32'0 0.0
2018-Jul-13 07:42N 45°10' E 036°32'0 0.0
2018-Jul-13 07:27N 45°10' E 036°32'0 0.0
2018-Jul-13 06:57N 45°10' E 036°32'0 0.1
2018-Jul-13 06:30N 45°10' E 036°32'0 0.0
2018-Jul-13 05:30N 45°10' E 036°32'0 0.1
2018-Jul-13 04:57N 45°10' E 036°32'0 0.0
2018-Jul-12 13:45N 45°10' E 036°32'0 0.2
2018-Jul-12 13:12N 45°10' E 036°32'0 0.5
2018-Jul-12 12:48N 45°10' E 036°32'0 0.0
2018-Jul-12 04:15N 45°10' E 036°33'0 0.0
2018-Jul-12 03:42N 45°10' E 036°33'0 0.0
2018-Jul-12 03:30N 45°10' E 036°33'0 0.0
2018-Jul-11 20:45N 45°10' E 036°33'  
Track history (hours):
 
Tides and Currents Weather Stations Pressure Air Temp Water Temp Dewpoint Dewpoint Depression Visibility Wind Speed Wind Dir Waves Ship Positions

Tigran Martirosyan

Last reported at 2018-Jul-21 06:45 UTC. Time now 2018-Jul-21 09:19 UTC.
Position N 45°05' E 036°34'.

Length 99 m; draft 6.3 m.

Type: Tanker. MMSI: 273332610.

Date/timePositionNaut miles runAvg speedWind from/ knotsBaromVisibWave heightAir tempDewpointWater temp
2018-Jul-21 06:45N 45°05' E 036°34'  
2018-Jul-17 18:04N 44°39' E 037°28'1 8.6
2018-Jul-17 18:00N 44°38' E 037°29'4 8.3
2018-Jul-17 17:30N 44°36' E 037°33'4 8.1
2018-Jul-17 17:00N 44°34' E 037°38'3 5.9
2018-Jul-17 16:30N 44°36' E 037°42'4 7.2
2018-Jul-17 16:00N 44°38' E 037°46'3 6.9
2018-Jul-17 15:30N 44°40' E 037°50'1 3.0
2018-Jul-17 15:00N 44°41' E 037°49'0 0.0
2018-Jul-17 14:27N 44°41' E 037°49'0 0.1
2018-Jul-17 14:00N 44°41' E 037°49'2 4.7
2018-Jul-17 13:30N 44°43' E 037°48'1 1.9
2018-Jul-17 13:00N 44°44' E 037°47'0 0.0
2018-Jul-17 12:30N 44°44' E 037°47'0 0.0
2018-Jul-17 12:00N 44°44' E 037°47'0 0.0
2018-Jul-17 11:30N 44°44' E 037°47'0 0.0
2018-Jul-17 11:00N 44°44' E 037°47'0 0.0
2018-Jul-17 10:30N 44°44' E 037°47'0 0.0
2018-Jul-17 10:00N 44°44' E 037°47'0 0.0
2018-Jul-17 09:30N 44°44' E 037°47'0 0.0
2018-Jul-17 09:00N 44°44' E 037°47'0 0.0
2018-Jul-17 08:30N 44°44' E 037°47'0 0.0
2018-Jul-17 08:00N 44°44' E 037°47'0 0.8
2018-Jul-17 07:30N 44°44' E 037°47'3 5.5
2018-Jul-17 07:01N 44°41' E 037°49'0 0.4
2018-Jul-17 06:30N 44°41' E 037°49'0 0.0
2018-Jul-17 06:00N 44°41' E 037°49'0 0.0
2018-Jul-17 05:30N 44°41' E 037°49'0 0.0
2018-Jul-17 05:00N 44°41' E 037°49'0 0.0
2018-Jul-17 04:30N 44°41' E 037°49'0 0.0
2018-Jul-17 04:00N 44°41' E 037°49'0 0.0
2018-Jul-17 03:30N 44°41' E 037°49'0 0.0
2018-Jul-17 03:00N 44°41' E 037°49'0 0.0
2018-Jul-17 02:30N 44°41' E 037°49'0 0.1
2018-Jul-17 02:00N 44°41' E 037°49'0 0.1
2018-Jul-17 01:30N 44°41' E 037°49'0 0.1
2018-Jul-17 01:00N 44°41' E 037°49'0 0.2
2018-Jul-17 00:27N 44°41' E 037°49'0 0.0
2018-Jul-16 23:30N 44°41' E 037°49'1 2.4
2018-Jul-16 23:00N 44°40' E 037°50'4 7.6
2018-Jul-16 22:30N 44°37' E 037°52'2 4.2
2018-Jul-16 22:00N 44°35' E 037°54'0 0.0
2018-Jul-16 21:30N 44°35' E 037°54'0 0.0
2018-Jul-16 20:57N 44°35' E 037°54'0 0.1
2018-Jul-16 20:30N 44°35' E 037°54'0 0.3
2018-Jul-16 20:00N 44°35' E 037°54'0 0.0
2018-Jul-16 19:30N 44°35' E 037°54'0 0.0
2018-Jul-16 19:00N 44°35' E 037°54'0 0.1
2018-Jul-16 18:30N 44°35' E 037°54'0 0.1
2018-Jul-16 18:00N 44°35' E 037°54'0 0.0
2018-Jul-16 17:30N 44°35' E 037°54'0 0.0
2018-Jul-16 17:00N 44°35' E 037°54'0 0.0
2018-Jul-16 16:30N 44°35' E 037°54'0 0.0
2018-Jul-16 16:00N 44°35' E 037°54'0 0.0
2018-Jul-16 15:30N 44°35' E 037°54'0 0.0
2018-Jul-16 15:00N 44°35' E 037°54'0 0.0
2018-Jul-16 14:30N 44°35' E 037°54'0 0.0
2018-Jul-16 14:00N 44°35' E 037°54'0 0.0
2018-Jul-16 13:30N 44°35' E 037°54'0 0.0
2018-Jul-16 13:00N 44°35' E 037°54'0 0.1
2018-Jul-16 12:30N 44°35' E 037°54'0 0.0
2018-Jul-16 12:00N 44°35' E 037°54'0 0.1
2018-Jul-16 11:30N 44°35' E 037°54'1 2.6
2018-Jul-16 11:00N 44°36' E 037°54'0 0.1
2018-Jul-16 10:31N 44°36' E 037°54'0 0.0
2018-Jul-16 10:01N 44°36' E 037°54'0 0.0
2018-Jul-16 09:30N 44°36' E 037°54'2 3.6
2018-Jul-16 09:00N 44°38' E 037°53'3 6.8
2018-Jul-16 08:30N 44°40' E 037°50'1 1.9
2018-Jul-16 08:00N 44°41' E 037°49'0 0.0
2018-Jul-16 07:30N 44°41' E 037°49'0 0.0
2018-Jul-16 07:00N 44°41' E 037°49'0 0.0
2018-Jul-16 06:30N 44°41' E 037°49'0 0.0
2018-Jul-16 06:00N 44°41' E 037°49'0 0.1
2018-Jul-16 05:30N 44°41' E 037°49'0 0.1
2018-Jul-16 05:00N 44°41' E 037°49'0 0.0
2018-Jul-16 04:30N 44°41' E 037°49'0 0.0
2018-Jul-16 04:00N 44°41' E 037°49'0 0.0
2018-Jul-16 03:30N 44°41' E 037°49'0 0.0
2018-Jul-16 03:00N 44°41' E 037°49'0 0.0
2018-Jul-16 02:30N 44°41' E 037°49'0 0.0
2018-Jul-16 02:00N 44°41' E 037°49'0 0.0
2018-Jul-16 01:30N 44°41' E 037°49'0 0.0
2018-Jul-16 01:00N 44°41' E 037°49'0 0.0
2018-Jul-16 00:30N 44°41' E 037°49'0 0.0
2018-Jul-15 23:57N 44°41' E 037°49'0 0.0
2018-Jul-15 23:30N 44°41' E 037°49'0 0.0
2018-Jul-15 23:00N 44°41' E 037°49'0 0.0
2018-Jul-15 22:30N 44°41' E 037°49'0 0.0
2018-Jul-15 22:00N 44°41' E 037°49'0 0.0
2018-Jul-15 21:30N 44°41' E 037°49'0 0.0
2018-Jul-15 21:00N 44°41' E 037°49'0 0.0
2018-Jul-15 20:30N 44°41' E 037°49'0 0.0
2018-Jul-15 20:00N 44°41' E 037°49'0 0.0
2018-Jul-15 19:30N 44°41' E 037°49'0 0.1
2018-Jul-15 19:00N 44°41' E 037°49'0 0.1
2018-Jul-15 18:30N 44°41' E 037°49'0 0.1
2018-Jul-15 18:00N 44°41' E 037°49'0 0.0
2018-Jul-15 17:30N 44°41' E 037°49'0 0.0
2018-Jul-15 17:00N 44°41' E 037°49'0 0.1
2018-Jul-15 16:30N 44°41' E 037°49'0 0.1
2018-Jul-15 16:00N 44°41' E 037°49'0 0.0
2018-Jul-15 15:30N 44°41' E 037°49'0 0.0
2018-Jul-15 15:00N 44°41' E 037°49'0 0.0
2018-Jul-15 14:24N 44°41' E 037°49'0 0.0
2018-Jul-15 14:00N 44°41' E 037°49'0 0.0
2018-Jul-15 13:30N 44°41' E 037°49'0 0.0
2018-Jul-15 13:00N 44°41' E 037°49'0 0.0
2018-Jul-15 12:30N 44°41' E 037°49'0 0.1
2018-Jul-15 12:00N 44°41' E 037°49'0 0.0
2018-Jul-15 11:30N 44°41' E 037°49'0 0.0
2018-Jul-15 11:00N 44°41' E 037°49'0 0.0
2018-Jul-15 10:30N 44°41' E 037°49'0 0.0
2018-Jul-15 10:00N 44°41' E 037°49'0 0.0
2018-Jul-15 09:30N 44°41' E 037°49'0 0.0
2018-Jul-15 09:00N 44°41' E 037°49'0 0.0
2018-Jul-15 08:30N 44°41' E 037°49'0 0.0
2018-Jul-15 08:00N 44°41' E 037°49'0 0.0
2018-Jul-15 07:30N 44°41' E 037°49'0 0.0
2018-Jul-15 07:01N 44°41' E 037°49'0 0.1
2018-Jul-15 06:31N 44°41' E 037°49'0 0.2
2018-Jul-15 06:00N 44°41' E 037°49'0 0.1
2018-Jul-15 05:31N 44°41' E 037°49'0 0.1
2018-Jul-15 05:00N 44°41' E 037°49'0 0.1
2018-Jul-15 04:31N 44°41' E 037°49'0 0.0
2018-Jul-15 04:00N 44°41' E 037°49'0 0.0
2018-Jul-15 03:31N 44°41' E 037°49'0 0.0
2018-Jul-15 03:01N 44°41' E 037°49'0 0.0
2018-Jul-15 02:31N 44°41' E 037°49'0 0.0
2018-Jul-15 02:01N 44°41' E 037°49'0 0.1
2018-Jul-15 01:30N 44°41' E 037°49'0 0.0
2018-Jul-15 01:01N 44°41' E 037°49'0 0.0
2018-Jul-15 00:30N 44°41' E 037°49'0 0.0
2018-Jul-15 00:00N 44°41' E 037°49'0 0.0
2018-Jul-14 23:31N 44°41' E 037°49'0 0.0
2018-Jul-14 23:00N 44°41' E 037°49'1 1.6
2018-Jul-14 22:30N 44°40' E 037°50'3 6.4
2018-Jul-14 22:00N 44°38' E 037°47'4 7.5
2018-Jul-14 21:30N 44°36' E 037°42'4 7.5
2018-Jul-14 21:00N 44°36' E 037°37'58 2.0
2018-Jul-13 15:33N 45°11' E 036°32'0 0.0
2018-Jul-13 15:27N 45°11' E 036°32'0 0.0
2018-Jul-13 14:57N 45°11' E 036°32'0 0.0
2018-Jul-13 14:21N 45°11' E 036°32'0 0.0
2018-Jul-13 13:30N 45°11' E 036°32'0 0.0
2018-Jul-13 13:00N 45°11' E 036°32'0 0.0
2018-Jul-13 12:24N 45°11' E 036°32'0 0.0
2018-Jul-13 12:00N 45°11' E 036°32'0 0.0
2018-Jul-13 11:27N 45°11' E 036°32'0 0.0
2018-Jul-13 09:45N 45°11' E 036°32'0 0.1
2018-Jul-13 09:30N 45°11' E 036°32'0 0.7
2018-Jul-13 09:00N 45°10' E 036°32'0 0.0
2018-Jul-13 07:42N 45°10' E 036°32'0 0.0
2018-Jul-13 07:27N 45°10' E 036°32'0 0.0
2018-Jul-13 06:57N 45°10' E 036°32'0 0.1
2018-Jul-13 06:30N 45°10' E 036°32'0 0.0
2018-Jul-13 05:30N 45°10' E 036°32'0 0.1
2018-Jul-13 04:57N 45°10' E 036°32'0 0.0
2018-Jul-12 13:45N 45°10' E 036°32'0 0.2
2018-Jul-12 13:12N 45°10' E 036°32'0 0.5
2018-Jul-12 12:48N 45°10' E 036°32'0 0.0
2018-Jul-12 04:15N 45°10' E 036°33'0 0.0
2018-Jul-12 03:42N 45°10' E 036°33'0 0.0
2018-Jul-12 03:30N 45°10' E 036°33'0 0.0
2018-Jul-11 20:45N 45°10' E 036°33'  

Dump ship's entire track history